Terminal Aerodrome Forecast
Issued by NWS

Home | Current Version | Previous Version | Text Only | Print | Product List | Glossary On
Versions: 1 2 3 4 5 6 7 8 9 10 11 12 13 14 15 16 17 18
000
FTUS46 KLOX 032340
TAFBUR
TAF
KBUR 032340Z 0400/0424 18008KT P6SM SKC
     FM040300 16005KT P6SM SKC
     FM040600 VRB03KT P6SM OVC015
     FM041600 15004KT P6SM OVC025
     FM041900 16007KT P6SM SKC
     FM042100 18009KT P6SM SKC=

USA.gov is the U.S. government's official web portal to all federal, state and local government web resources and services.